createdAt,value
2022-10-15T00:01:23.518Z,11.21
2022-10-15T00:03:50.675Z,11.29
2022-10-15T00:06:20.711Z,11.33
2022-10-15T00:08:48.169Z,11.32
2022-10-15T00:11:18.337Z,11.33
2022-10-15T00:13:45.648Z,11.35
2022-10-15T00:16:19.705Z,11.34
2022-10-15T00:18:46.911Z,11.37
2022-10-15T00:21:16.400Z,11.38
2022-10-15T00:23:44.293Z,11.38
2022-10-15T00:26:15.532Z,11.41
2022-10-15T00:28:42.831Z,11.48
2022-10-15T00:31:13.320Z,11.44
2022-10-15T00:33:41.564Z,11.51
2022-10-15T00:36:12.920Z,11.50
2022-10-15T00:38:40.255Z,11.54
2022-10-15T00:41:10.947Z,11.58
2022-10-15T00:43:53.372Z,11.53
2022-10-15T00:46:37.316Z,11.61
2022-10-15T00:49:08.978Z,11.63
2022-10-15T00:51:42.118Z,11.66
2022-10-15T00:54:11.253Z,11.62
2022-10-15T00:56:41.455Z,11.65
2022-10-15T00:59:09.772Z,11.61
2022-10-15T01:01:36.877Z,11.67
2022-10-15T01:04:05.849Z,11.70
2022-10-15T01:06:32.915Z,11.69
2022-10-15T01:09:01.023Z,11.72
2022-10-15T01:11:37.182Z,11.73
2022-10-15T01:14:49.026Z,11.78
2022-10-15T01:17:32.333Z,11.79
2022-10-15T01:20:30.137Z,11.80
2022-10-15T01:23:15.582Z,11.82
2022-10-15T01:25:48.257Z,11.82
2022-10-15T01:28:32.177Z,11.83
2022-10-15T01:31:03.882Z,11.82
2022-10-15T01:33:47.566Z,11.81
2022-10-15T01:36:27.830Z,11.76
2022-10-15T01:39:09.777Z,11.76
2022-10-15T01:41:42.307Z,11.74
2022-10-15T01:44:16.764Z,11.80
2022-10-15T01:46:58.913Z,11.78
2022-10-15T01:49:30.445Z,11.78
2022-10-15T01:52:02.209Z,11.80
2022-10-15T01:54:29.786Z,11.77
2022-10-15T01:56:58.838Z,11.75
2022-10-15T01:59:30.177Z,11.70
2022-10-15T02:01:58.405Z,11.65
2022-10-15T02:04:31.198Z,11.66
2022-10-15T02:07:05.598Z,11.66
2022-10-15T02:09:38.548Z,11.64
2022-10-15T02:12:41.997Z,11.57
2022-10-15T02:15:17.703Z,11.61
2022-10-15T02:18:12.846Z,11.61
2022-10-15T02:20:59.501Z,11.55
2022-10-15T02:23:43.339Z,11.50
2022-10-15T02:26:12.190Z,11.47
2022-10-15T02:28:43.282Z,11.52
2022-10-15T02:31:14.301Z,11.51
2022-10-15T02:33:42.539Z,11.44
2022-10-15T02:36:10.126Z,11.48
2022-10-15T02:38:40.370Z,11.48
2022-10-15T02:41:08.643Z,11.43
2022-10-15T02:43:36.586Z,11.47
2022-10-15T02:46:05.061Z,11.47
2022-10-15T02:48:32.255Z,11.45
2022-10-15T02:50:59.247Z,11.53
2022-10-15T02:53:26.289Z,11.61
2022-10-15T02:55:53.301Z,11.56
2022-10-15T02:58:20.296Z,11.68
2022-10-15T03:00:47.369Z,11.71
2022-10-15T03:03:14.443Z,11.68
2022-10-15T03:05:43.333Z,11.69
2022-10-15T03:08:10.355Z,11.68
2022-10-15T03:10:37.360Z,11.68
2022-10-15T03:13:05.949Z,11.65
2022-10-15T03:15:33.603Z,11.61
2022-10-15T03:18:00.600Z,11.58
2022-10-15T03:20:27.651Z,11.58
2022-10-15T03:22:55.142Z,11.55
2022-10-15T03:25:22.844Z,11.54
2022-10-15T03:27:52.771Z,11.35
2022-10-15T03:30:20.251Z,11.40
2022-10-15T03:32:48.229Z,11.40
2022-10-15T03:35:15.509Z,11.29
2022-10-15T03:37:42.522Z,11.27
2022-10-15T03:40:13.730Z,11.25
2022-10-15T03:42:41.718Z,11.26
2022-10-15T03:45:09.179Z,11.23
2022-10-15T03:47:36.225Z,11.21
2022-10-15T03:50:03.534Z,11.21
2022-10-15T03:52:30.543Z,11.13
2022-10-15T03:54:57.546Z,11.11
2022-10-15T03:57:25.001Z,11.17
2022-10-15T03:59:52.037Z,11.16
2022-10-15T04:02:19.111Z,11.16
2022-10-15T04:04:46.099Z,11.11
2022-10-15T04:07:13.155Z,11.07
2022-10-15T04:09:40.175Z,11.10
2022-10-15T04:12:07.176Z,11.12
2022-10-15T04:14:34.167Z,10.98
2022-10-15T04:17:01.879Z,11.09
2022-10-15T04:19:28.999Z,11.14
2022-10-15T04:21:56.404Z,11.19
2022-10-15T04:24:23.791Z,11.21
2022-10-15T04:26:50.949Z,11.20
2022-10-15T04:29:18.029Z,11.27
2022-10-15T04:31:45.207Z,11.21
2022-10-15T04:34:12.645Z,11.23
2022-10-15T04:36:39.679Z,11.19
2022-10-15T04:39:08.609Z,11.16
2022-10-15T04:41:37.949Z,11.19
2022-10-15T04:44:05.150Z,11.16
2022-10-15T04:46:32.274Z,11.12
2022-10-15T04:48:59.388Z,11.19
2022-10-15T04:51:26.986Z,11.18
2022-10-15T04:53:55.764Z,11.17
2022-10-15T04:56:23.646Z,11.16
2022-10-15T04:58:51.287Z,11.16
2022-10-15T05:01:20.223Z,11.15
2022-10-15T05:03:48.863Z,11.22
2022-10-15T05:06:20.868Z,11.23
2022-10-15T05:08:49.174Z,11.27
2022-10-15T05:11:21.570Z,11.28
2022-10-15T05:13:49.071Z,11.24
2022-10-15T05:16:21.863Z,11.25
2022-10-15T05:18:50.711Z,11.31
2022-10-15T05:21:19.117Z,11.39
2022-10-15T05:23:47.179Z,11.42
2022-10-15T05:26:15.943Z,11.40
2022-10-15T05:28:43.093Z,11.45
2022-10-15T05:31:18.353Z,11.38
2022-10-15T05:33:49.718Z,11.48
2022-10-15T05:36:21.332Z,11.48
2022-10-15T05:38:51.360Z,11.46
2022-10-15T05:41:18.786Z,11.48
2022-10-15T05:43:50.623Z,11.41
2022-10-15T05:46:18.843Z,11.52
2022-10-15T05:48:53.936Z,11.53
2022-10-15T05:51:21.277Z,11.66
2022-10-15T05:53:51.470Z,11.61
2022-10-15T05:56:18.495Z,11.68
2022-10-15T05:58:45.616Z,11.69
2022-10-15T06:01:13.567Z,11.69
2022-10-15T06:03:41.604Z,11.72
2022-10-15T06:06:22.995Z,11.76
2022-10-15T06:08:50.494Z,11.79
2022-10-15T06:11:18.162Z,11.77
2022-10-15T06:13:46.367Z,11.88
2022-10-15T06:16:18.034Z,11.93
2022-10-15T06:18:48.163Z,11.89
2022-10-15T06:21:15.208Z,11.93
2022-10-15T06:23:42.235Z,11.83
2022-10-15T06:26:10.315Z,11.92
2022-10-15T06:28:38.564Z,11.87
2022-10-15T06:31:07.284Z,11.95
2022-10-15T06:33:35.342Z,11.98
2022-10-15T06:36:04.633Z,11.97
2022-10-15T06:38:33.007Z,11.96
2022-10-15T06:41:00.235Z,11.96
2022-10-15T06:43:29.805Z,12.00
2022-10-15T06:46:00.156Z,11.97
2022-10-15T06:48:27.260Z,12.00
2022-10-15T06:50:54.882Z,11.91
2022-10-15T06:53:22.991Z,11.94
2022-10-15T06:55:50.030Z,11.99
2022-10-15T06:58:17.133Z,12.08
2022-10-15T07:00:44.197Z,12.10
2022-10-15T07:03:13.530Z,12.16
2022-10-15T07:05:40.549Z,12.15
2022-10-15T07:08:07.576Z,12.14
2022-10-15T07:10:34.714Z,12.22
2022-10-15T07:13:02.087Z,12.26
2022-10-15T07:15:29.314Z,12.19
2022-10-15T07:17:57.885Z,12.28
2022-10-15T07:20:25.169Z,12.25
2022-10-15T07:23:00.321Z,12.29
2022-10-15T07:25:28.141Z,12.30
2022-10-15T07:27:56.461Z,12.48
2022-10-15T07:30:27.562Z,12.51
2022-10-15T07:32:58.510Z,12.49
2022-10-15T07:35:27.130Z,12.42
2022-10-15T07:38:00.251Z,12.59
2022-10-15T07:40:27.262Z,12.61
2022-10-15T07:42:56.230Z,12.60
2022-10-15T07:45:25.126Z,12.65
2022-10-15T07:47:53.220Z,12.72
2022-10-15T07:50:21.054Z,12.77
2022-10-15T07:52:48.148Z,12.80
2022-10-15T07:55:15.226Z,12.88
2022-10-15T07:57:42.253Z,12.86
2022-10-15T08:00:09.926Z,12.85
2022-10-15T08:02:36.977Z,12.90
2022-10-15T08:05:04.183Z,12.89
2022-10-15T08:07:31.234Z,12.92
2022-10-15T08:09:58.285Z,12.95
2022-10-15T08:12:25.881Z,13.04
2022-10-15T08:14:53.168Z,13.13
2022-10-15T08:17:20.234Z,13.19
2022-10-15T08:19:47.336Z,13.24
2022-10-15T08:22:14.920Z,13.27
2022-10-15T08:24:41.989Z,13.25
2022-10-15T08:27:09.048Z,13.25
2022-10-15T08:29:36.157Z,13.36
2022-10-15T08:32:03.310Z,13.36
2022-10-15T08:34:30.416Z,13.40
2022-10-15T08:36:57.501Z,13.44
2022-10-15T08:39:25.150Z,13.51
2022-10-15T08:41:57.051Z,13.48
2022-10-15T08:44:27.612Z,13.56
2022-10-15T08:47:02.890Z,13.67
2022-10-15T08:49:56.518Z,13.73
2022-10-15T08:52:34.236Z,13.85
2022-10-15T08:55:05.294Z,13.90
2022-10-15T08:57:38.559Z,14.01
2022-10-15T09:00:20.531Z,14.00
2022-10-15T09:03:24.117Z,14.05
2022-10-15T09:06:02.098Z,14.08
2022-10-15T09:08:32.028Z,14.12
2022-10-15T09:11:35.656Z,14.14
2022-10-15T09:14:06.036Z,14.30
2022-10-15T09:16:37.326Z,14.43
2022-10-15T09:19:11.672Z,14.54
2022-10-15T09:21:38.919Z,14.60
2022-10-15T09:24:06.233Z,14.68
2022-10-15T09:26:44.819Z,14.80
2022-10-15T09:29:22.089Z,14.84
2022-10-15T09:32:03.184Z,14.83
2022-10-15T09:34:40.261Z,14.93
2022-10-15T09:37:16.176Z,14.85
2022-10-15T09:40:01.971Z,15.02
2022-10-15T09:42:34.384Z,15.07
2022-10-15T09:45:05.806Z,15.03
2022-10-15T09:47:35.338Z,14.97
2022-10-15T09:50:05.450Z,14.91
2022-10-15T09:52:54.143Z,14.87
2022-10-15T09:55:36.887Z,14.81
2022-10-15T09:58:10.585Z,14.75
2022-10-15T10:01:23.249Z,14.71
2022-10-15T10:04:11.679Z,14.64
2022-10-15T10:06:50.729Z,14.59
2022-10-15T10:09:21.602Z,14.56
2022-10-15T10:11:55.355Z,14.53
2022-10-15T10:14:24.419Z,14.57
2022-10-15T10:17:18.566Z,14.63
2022-10-15T10:20:22.456Z,14.60
2022-10-15T10:22:52.579Z,14.56
2022-10-15T10:25:42.788Z,14.69
2022-10-15T10:28:09.930Z,14.78
2022-10-15T10:30:43.845Z,14.95
2022-10-15T10:33:16.711Z,15.02
2022-10-15T10:35:46.621Z,15.06
2022-10-15T10:38:22.032Z,15.02
2022-10-15T10:40:59.070Z,15.03
2022-10-15T10:43:28.822Z,14.96
2022-10-15T10:46:16.021Z,14.99
2022-10-15T10:48:46.050Z,14.97
2022-10-15T10:51:19.357Z,14.85
2022-10-15T10:53:58.404Z,14.97
2022-10-15T10:56:34.077Z,15.04
2022-10-15T10:59:12.969Z,14.96
2022-10-15T11:01:40.019Z,14.92
2022-10-15T11:04:18.571Z,14.83
2022-10-15T11:06:58.349Z,14.78
2022-10-15T11:09:47.937Z,14.67
2022-10-15T11:12:38.504Z,14.63
2022-10-15T11:15:18.858Z,14.57
2022-10-15T11:18:08.864Z,14.53
2022-10-15T11:21:00.707Z,14.48
2022-10-15T11:23:53.685Z,14.55
2022-10-15T11:26:26.391Z,14.48
2022-10-15T11:28:59.597Z,14.47
2022-10-15T11:31:49.270Z,14.59
2022-10-15T11:34:46.461Z,14.62
2022-10-15T11:37:38.553Z,14.61
2022-10-15T11:40:33.369Z,14.66
2022-10-15T11:43:08.561Z,14.77
2022-10-15T11:45:57.054Z,14.74
2022-10-15T11:48:42.534Z,14.80
2022-10-15T11:51:32.117Z,14.81
2022-10-15T11:54:34.611Z,14.78
2022-10-15T11:57:03.735Z,14.73
2022-10-15T11:59:49.863Z,14.82
2022-10-15T12:02:34.887Z,14.94
2022-10-15T12:05:31.229Z,14.93
2022-10-15T12:07:58.589Z,14.88
2022-10-15T12:10:34.410Z,15.00
2022-10-15T12:14:06.175Z,15.06
2022-10-15T12:16:42.420Z,15.10
2022-10-15T12:19:18.843Z,15.21
2022-10-15T12:21:54.442Z,15.15
2022-10-15T12:24:40.450Z,15.21
2022-10-15T12:27:19.546Z,15.22
2022-10-15T12:30:12.891Z,15.29
2022-10-15T12:32:48.697Z,15.36
2022-10-15T12:35:16.182Z,15.44
2022-10-15T12:37:46.024Z,15.45
2022-10-15T12:40:27.111Z,15.41
2022-10-15T12:43:03.374Z,15.44
2022-10-15T12:45:41.888Z,15.47
2022-10-15T12:48:08.827Z,15.58
2022-10-15T12:50:37.291Z,15.52
2022-10-15T12:53:26.009Z,15.48
2022-10-15T12:56:24.078Z,15.48
2022-10-15T12:58:56.123Z,15.46
2022-10-15T13:01:23.124Z,15.46
2022-10-15T13:03:50.601Z,15.45
2022-10-15T13:06:20.627Z,15.46
2022-10-15T13:09:10.532Z,15.44
2022-10-15T13:11:43.293Z,15.44
2022-10-15T13:14:31.005Z,15.35
2022-10-15T13:17:00.810Z,15.35
2022-10-15T13:19:39.315Z,15.33
2022-10-15T13:22:21.420Z,15.32
2022-10-15T13:24:48.660Z,15.41
2022-10-15T13:27:23.447Z,15.41
2022-10-15T13:30:02.157Z,15.33
2022-10-15T13:32:33.260Z,15.44
2022-10-15T13:35:02.923Z,15.31
2022-10-15T13:37:34.306Z,15.38
2022-10-15T13:40:06.760Z,15.38
2022-10-15T13:42:35.495Z,15.35
2022-10-15T13:45:16.390Z,15.46
2022-10-15T13:47:48.769Z,15.49
2022-10-15T13:50:28.272Z,15.66
2022-10-15T13:53:10.067Z,15.81
2022-10-15T13:55:40.040Z,15.83
2022-10-15T13:58:26.660Z,15.81
2022-10-15T14:01:03.751Z,15.83
2022-10-15T14:03:33.898Z,15.92
2022-10-15T14:06:19.725Z,16.01
2022-10-15T14:08:49.091Z,16.07
2022-10-15T14:11:17.693Z,16.14
2022-10-15T14:13:55.886Z,16.21
2022-10-15T14:16:39.828Z,16.17
2022-10-15T14:19:06.758Z,16.28
2022-10-15T14:21:35.601Z,16.30
2022-10-15T14:24:13.349Z,16.39
2022-10-15T14:26:40.978Z,16.27
2022-10-15T14:29:16.187Z,16.25
2022-10-15T14:31:47.248Z,16.13
2022-10-15T14:34:41.740Z,16.18
2022-10-15T14:37:30.751Z,16.26
2022-10-15T14:40:15.884Z,16.32
2022-10-15T14:43:03.813Z,16.23
2022-10-15T14:45:54.192Z,16.08
2022-10-15T14:48:25.238Z,16.12
2022-10-15T14:50:53.215Z,16.04
2022-10-15T14:53:28.089Z,16.11
2022-10-15T14:56:03.014Z,15.99
2022-10-15T14:58:30.710Z,16.09
2022-10-15T15:01:00.759Z,15.97
2022-10-15T15:03:37.690Z,15.89
2022-10-15T15:06:05.126Z,15.85
2022-10-15T15:08:32.219Z,15.86
2022-10-15T15:11:02.011Z,15.83
2022-10-15T15:13:32.068Z,15.89
2022-10-15T15:15:59.059Z,15.87
2022-10-15T15:18:26.233Z,15.81
2022-10-15T15:20:53.349Z,15.86
2022-10-15T15:23:24.755Z,15.82
2022-10-15T15:25:52.412Z,15.70
2022-10-15T15:28:26.345Z,15.69
2022-10-15T15:31:02.071Z,15.57
2022-10-15T15:33:29.431Z,15.57
2022-10-15T15:36:07.896Z,15.57
2022-10-15T15:41:20.187Z,15.33
2022-10-15T15:43:47.657Z,15.34
2022-10-15T15:46:15.184Z,15.29
2022-10-15T15:48:42.397Z,15.17
2022-10-15T15:51:30.265Z,15.25
2022-10-15T15:53:57.834Z,15.37
2022-10-15T15:56:25.336Z,15.37
2022-10-15T15:58:52.505Z,15.42
2022-10-15T16:01:20.102Z,15.23
2022-10-15T16:03:47.155Z,15.14
2022-10-15T16:06:14.360Z,15.07
2022-10-15T16:08:41.401Z,14.91
2022-10-15T16:11:08.450Z,14.86
2022-10-15T16:13:35.536Z,14.75
2022-10-15T16:16:03.166Z,14.72
2022-10-15T16:18:30.335Z,14.63
2022-10-15T16:20:57.604Z,14.56
2022-10-15T16:23:24.865Z,14.44
2022-10-15T16:25:54.320Z,14.37
2022-10-15T16:28:21.345Z,14.35
2022-10-15T16:30:48.590Z,14.31
2022-10-15T16:33:15.825Z,14.23
2022-10-15T16:35:42.873Z,14.19
2022-10-15T16:38:09.897Z,14.10
2022-10-15T16:40:38.479Z,14.04
2022-10-15T16:43:05.648Z,13.95
2022-10-15T16:45:33.383Z,13.92
2022-10-15T16:48:00.376Z,13.88
2022-10-15T16:50:27.344Z,13.84
2022-10-15T16:52:54.437Z,13.68
2022-10-15T16:55:21.445Z,13.65
2022-10-15T16:57:48.462Z,13.66
2022-10-15T17:00:15.451Z,13.59
2022-10-15T17:02:42.567Z,13.52
2022-10-15T17:05:09.689Z,13.49
2022-10-15T17:07:36.731Z,13.52
2022-10-15T17:10:04.160Z,13.49
2022-10-15T17:12:31.200Z,13.50
2022-10-15T17:14:58.252Z,13.42
2022-10-15T17:17:27.969Z,13.43
2022-10-15T17:19:55.461Z,13.40
2022-10-15T17:22:22.753Z,13.40
2022-10-15T17:24:50.165Z,13.35
2022-10-15T17:27:17.496Z,13.35
2022-10-15T17:29:44.605Z,13.36
2022-10-15T17:32:11.602Z,13.31
2022-10-15T17:34:38.582Z,13.27
2022-10-15T17:37:05.568Z,13.27
2022-10-15T17:39:33.171Z,13.27
2022-10-15T17:42:00.250Z,13.27
2022-10-15T17:44:27.324Z,13.25
2022-10-15T17:46:54.368Z,13.24
2022-10-15T17:49:21.401Z,13.15
2022-10-15T17:51:48.546Z,13.22
2022-10-15T17:54:15.743Z,13.14
2022-10-15T17:56:42.994Z,13.11
2022-10-15T17:59:12.716Z,13.09
2022-10-15T18:01:59.189Z,12.98
2022-10-15T18:04:28.437Z,12.96
2022-10-15T18:06:55.682Z,12.89
2022-10-15T18:09:22.688Z,12.94
2022-10-15T18:11:49.760Z,12.87
2022-10-15T18:14:16.891Z,12.94
2022-10-15T18:16:44.287Z,12.89
2022-10-15T18:19:11.570Z,12.93
2022-10-15T18:21:43.414Z,12.85
2022-10-15T18:24:12.761Z,12.87
2022-10-15T18:26:39.826Z,12.87
2022-10-15T18:29:07.014Z,12.81
2022-10-15T18:31:34.081Z,12.80
2022-10-15T18:34:01.063Z,12.86
2022-10-15T18:36:30.769Z,12.79
2022-10-15T18:38:58.326Z,12.90
2022-10-15T18:41:28.229Z,12.90
2022-10-15T18:43:58.292Z,12.89
2022-10-15T18:46:27.360Z,12.85
2022-10-15T18:48:55.021Z,12.84
2022-10-15T18:51:22.169Z,12.81
2022-10-15T18:53:49.180Z,12.73
2022-10-15T18:56:16.247Z,12.75
2022-10-15T18:58:43.322Z,12.72
2022-10-15T19:01:25.422Z,12.73
2022-10-15T19:03:56.694Z,12.76
2022-10-15T19:06:27.349Z,12.77
2022-10-15T19:08:57.679Z,12.76
2022-10-15T19:11:26.102Z,12.80
2022-10-15T19:13:53.458Z,12.70
2022-10-15T19:16:20.539Z,12.72
2022-10-15T19:18:47.541Z,12.74
2022-10-15T19:21:14.860Z,12.79
2022-10-15T19:23:41.944Z,12.73
2022-10-15T19:26:13.569Z,12.77
2022-10-15T19:28:40.783Z,12.72
2022-10-15T19:31:11.596Z,12.83
2022-10-15T19:33:38.689Z,12.81
2022-10-15T19:36:05.861Z,12.83
2022-10-15T19:38:35.674Z,12.85
2022-10-15T19:41:05.629Z,12.89
2022-10-15T19:43:36.005Z,12.93
2022-10-15T19:46:04.318Z,12.92
2022-10-15T19:48:31.978Z,12.92
2022-10-15T19:51:02.006Z,12.95
2022-10-15T19:53:31.990Z,12.94
2022-10-15T19:56:02.350Z,13.01
2022-10-15T19:58:30.068Z,12.96
2022-10-15T20:00:57.769Z,12.95
2022-10-15T20:03:26.846Z,13.07
2022-10-15T20:05:55.414Z,13.04
2022-10-15T20:08:23.031Z,13.05
2022-10-15T20:10:51.394Z,12.97
2022-10-15T20:13:20.714Z,13.05
2022-10-15T20:15:51.291Z,13.10
2022-10-15T20:18:19.646Z,13.13
2022-10-15T20:20:47.594Z,13.23
2022-10-15T20:23:16.211Z,13.26
2022-10-15T20:25:44.221Z,13.22
2022-10-15T20:28:13.393Z,13.22
2022-10-15T20:30:40.800Z,13.16
2022-10-15T20:33:08.831Z,13.14
2022-10-15T20:35:37.457Z,13.12
2022-10-15T20:38:05.497Z,13.15
2022-10-15T20:40:34.438Z,13.18
2022-10-15T20:43:01.455Z,13.13
2022-10-15T20:45:34.628Z,13.18
2022-10-15T20:48:05.688Z,13.18
2022-10-15T20:50:35.621Z,13.17
2022-10-15T20:53:03.338Z,13.17
2022-10-15T20:55:30.344Z,13.11
2022-10-15T20:57:57.430Z,13.09
2022-10-15T21:00:24.480Z,13.09
2022-10-15T21:02:51.522Z,13.11
2022-10-15T21:05:18.597Z,13.05
2022-10-15T21:07:45.581Z,13.07
2022-10-15T21:10:12.799Z,13.08
2022-10-15T21:12:39.803Z,13.04
2022-10-15T21:15:07.383Z,13.07
2022-10-15T21:17:34.375Z,13.06
2022-10-15T21:20:01.458Z,13.10
2022-10-15T21:22:28.453Z,13.11
2022-10-15T21:24:58.261Z,13.11
2022-10-15T21:27:26.045Z,13.12
2022-10-15T21:29:53.193Z,13.13
2022-10-15T21:32:20.176Z,13.14
2022-10-15T21:34:47.198Z,13.16
2022-10-15T21:37:14.278Z,13.16
2022-10-15T21:39:41.269Z,13.18
2022-10-15T21:42:08.291Z,13.17
2022-10-15T21:44:35.303Z,13.21
2022-10-15T21:47:02.307Z,13.20
2022-10-15T21:49:29.306Z,13.23
2022-10-15T21:51:56.368Z,13.24
2022-10-15T21:54:23.502Z,13.21
2022-10-15T21:56:50.571Z,13.21
2022-10-15T21:59:17.545Z,13.19
2022-10-15T22:01:45.632Z,13.17
2022-10-15T22:04:12.847Z,13.15
2022-10-15T22:06:40.454Z,13.12
2022-10-15T22:09:08.372Z,13.10
2022-10-15T22:11:38.218Z,13.10
2022-10-15T22:14:07.532Z,13.10
2022-10-15T22:16:36.788Z,13.10
2022-10-15T22:19:05.474Z,13.09
2022-10-15T22:21:36.264Z,13.11
2022-10-15T22:24:07.200Z,13.13
2022-10-15T22:26:37.961Z,13.16
2022-10-15T22:29:06.445Z,13.15
2022-10-15T22:31:34.067Z,13.13
2022-10-15T22:34:01.179Z,13.14
2022-10-15T22:36:30.496Z,13.11
2022-10-15T22:39:01.738Z,13.16
2022-10-15T22:41:31.588Z,13.21
2022-10-15T22:43:58.811Z,13.17
2022-10-15T22:46:26.700Z,13.09
2022-10-15T22:48:53.813Z,13.10
2022-10-15T22:51:21.116Z,13.05
2022-10-15T22:53:48.406Z,13.04
2022-10-15T22:56:17.872Z,12.97
2022-10-15T22:58:45.680Z,12.94
2022-10-15T23:01:24.847Z,12.91
2022-10-15T23:03:54.767Z,12.88
2022-10-15T23:06:22.789Z,12.84
2022-10-15T23:08:50.240Z,12.80
2022-10-15T23:11:21.318Z,12.68
2022-10-15T23:13:53.454Z,12.73
2022-10-15T23:16:26.224Z,12.65
2022-10-15T23:18:56.027Z,12.61
2022-10-15T23:21:45.168Z,12.67
2022-10-15T23:24:13.290Z,12.62
2022-10-15T23:26:40.875Z,12.52
2022-10-15T23:29:14.034Z,12.47
2022-10-15T23:31:41.267Z,12.38
2022-10-15T23:34:14.504Z,12.24
2022-10-15T23:36:41.834Z,12.22
2022-10-15T23:39:13.080Z,12.23
2022-10-15T23:41:40.388Z,12.14
2022-10-15T23:44:07.994Z,12.12
2022-10-15T23:46:35.029Z,12.11
2022-10-15T23:49:02.092Z,12.12
2022-10-15T23:51:30.429Z,12.12
2022-10-15T23:53:59.295Z,12.16
2022-10-15T23:56:26.756Z,12.16
2022-10-15T23:58:56.934Z,12.15
